sensor_id;sensor_type;location;lat;lon;timestamp;pressure;altitude;pressure_sealevel;temperature
10869;BMP180;62667;48.698;8.762;2023-04-03T00:00:45;96586.00;;;3.30
10869;BMP180;62667;48.698;8.762;2023-04-03T00:03:13;96580.00;;;3.30
10869;BMP180;62667;48.698;8.762;2023-04-03T00:05:40;96582.00;;;3.40
10869;BMP180;62667;48.698;8.762;2023-04-03T00:08:08;96578.00;;;3.40
10869;BMP180;62667;48.698;8.762;2023-04-03T00:10:37;96588.00;;;3.50
10869;BMP180;62667;48.698;8.762;2023-04-03T00:13:06;96585.00;;;3.50
10869;BMP180;62667;48.698;8.762;2023-04-03T00:15:34;96587.00;;;3.30
10869;BMP180;62667;48.698;8.762;2023-04-03T00:18:02;96577.00;;;3.20
10869;BMP180;62667;48.698;8.762;2023-04-03T00:20:30;96582.00;;;3.20
10869;BMP180;62667;48.698;8.762;2023-04-03T00:22:57;96581.00;;;3.30
10869;BMP180;62667;48.698;8.762;2023-04-03T00:25:25;96585.00;;;3.20
10869;BMP180;62667;48.698;8.762;2023-04-03T00:27:54;96578.00;;;3.20
10869;BMP180;62667;48.698;8.762;2023-04-03T00:30:22;96570.00;;;3.00
10869;BMP180;62667;48.698;8.762;2023-04-03T00:32:50;96571.00;;;3.10
10869;BMP180;62667;48.698;8.762;2023-04-03T00:35:19;96577.00;;;3.20
10869;BMP180;62667;48.698;8.762;2023-04-03T00:37:47;96568.00;;;3.20
10869;BMP180;62667;48.698;8.762;2023-04-03T00:40:15;96579.00;;;3.20
10869;BMP180;62667;48.698;8.762;2023-04-03T00:42:45;96568.00;;;3.00
10869;BMP180;62667;48.698;8.762;2023-04-03T00:45:34;96568.00;;;3.20
10869;BMP180;62667;48.698;8.762;2023-04-03T00:48:04;96572.00;;;3.00
10869;BMP180;62667;48.698;8.762;2023-04-03T00:50:34;96571.00;;;3.00
10869;BMP180;62667;48.698;8.762;2023-04-03T00:53:03;96561.00;;;3.10
10869;BMP180;62667;48.698;8.762;2023-04-03T00:55:30;96565.00;;;3.10
10869;BMP180;62667;48.698;8.762;2023-04-03T00:57:59;96562.00;;;3.10
10869;BMP180;62667;48.698;8.762;2023-04-03T01:00:27;96568.00;;;3.10
10869;BMP180;62667;48.698;8.762;2023-04-03T01:02:56;96567.00;;;3.00
10869;BMP180;62667;48.698;8.762;2023-04-03T01:05:24;96563.00;;;3.10
10869;BMP180;62667;48.698;8.762;2023-04-03T01:07:51;96574.00;;;3.00
10869;BMP180;62667;48.698;8.762;2023-04-03T01:10:20;96576.00;;;3.00
10869;BMP180;62667;48.698;8.762;2023-04-03T01:12:50;96573.00;;;3.00
10869;BMP180;62667;48.698;8.762;2023-04-03T01:15:19;96577.00;;;2.90
10869;BMP180;62667;48.698;8.762;2023-04-03T01:17:48;96582.00;;;2.90
10869;BMP180;62667;48.698;8.762;2023-04-03T01:20:56;96577.00;;;2.90
10869;BMP180;62667;48.698;8.762;2023-04-03T01:23:48;96577.00;;;3.00
10869;BMP180;62667;48.698;8.762;2023-04-03T01:26:20;96580.00;;;2.90
10869;BMP180;62667;48.698;8.762;2023-04-03T01:28:47;96571.00;;;2.70
10869;BMP180;62667;48.698;8.762;2023-04-03T01:31:20;96580.00;;;2.90
10869;BMP180;62667;48.698;8.762;2023-04-03T01:33:51;96582.00;;;3.00
10869;BMP180;62667;48.698;8.762;2023-04-03T01:36:20;96571.00;;;3.00
10869;BMP180;62667;48.698;8.762;2023-04-03T01:38:48;96574.00;;;3.00
10869;BMP180;62667;48.698;8.762;2023-04-03T01:41:16;96578.00;;;2.90
10869;BMP180;62667;48.698;8.762;2023-04-03T01:43:44;96581.00;;;3.00
10869;BMP180;62667;48.698;8.762;2023-04-03T01:46:11;96580.00;;;2.90
10869;BMP180;62667;48.698;8.762;2023-04-03T01:48:38;96583.00;;;2.90
10869;BMP180;62667;48.698;8.762;2023-04-03T01:51:07;96582.00;;;2.90
10869;BMP180;62667;48.698;8.762;2023-04-03T01:53:35;96578.00;;;2.90
10869;BMP180;62667;48.698;8.762;2023-04-03T01:56:02;96576.00;;;2.90
10869;BMP180;62667;48.698;8.762;2023-04-03T01:58:30;96581.00;;;3.00
10869;BMP180;62667;48.698;8.762;2023-04-03T02:00:57;96575.00;;;2.90
10869;BMP180;62667;48.698;8.762;2023-04-03T02:03:24;96586.00;;;2.80
10869;BMP180;62667;48.698;8.762;2023-04-03T02:05:52;96586.00;;;2.80
10869;BMP180;62667;48.698;8.762;2023-04-03T02:08:21;96586.00;;;2.80
10869;BMP180;62667;48.698;8.762;2023-04-03T02:10:48;96584.00;;;2.80
10869;BMP180;62667;48.698;8.762;2023-04-03T02:13:16;96583.00;;;2.70
10869;BMP180;62667;48.698;8.762;2023-04-03T02:15:43;96584.00;;;2.70
10869;BMP180;62667;48.698;8.762;2023-04-03T02:18:12;96589.00;;;2.80
10869;BMP180;62667;48.698;8.762;2023-04-03T02:20:39;96587.00;;;2.80
10869;BMP180;62667;48.698;8.762;2023-04-03T02:23:07;96588.00;;;2.80
10869;BMP180;62667;48.698;8.762;2023-04-03T02:25:35;96583.00;;;2.80
10869;BMP180;62667;48.698;8.762;2023-04-03T02:28:03;96582.00;;;2.80
10869;BMP180;62667;48.698;8.762;2023-04-03T02:30:30;96592.00;;;2.80
10869;BMP180;62667;48.698;8.762;2023-04-03T02:32:57;96581.00;;;2.80
10869;BMP180;62667;48.698;8.762;2023-04-03T02:35:25;96592.00;;;2.80
10869;BMP180;62667;48.698;8.762;2023-04-03T02:37:52;96588.00;;;2.80
10869;BMP180;62667;48.698;8.762;2023-04-03T02:40:19;96587.00;;;2.80
10869;BMP180;62667;48.698;8.762;2023-04-03T02:42:48;96577.00;;;2.80
10869;BMP180;62667;48.698;8.762;2023-04-03T02:45:16;96578.00;;;2.70
10869;BMP180;62667;48.698;8.762;2023-04-03T02:47:43;96579.00;;;2.70
10869;BMP180;62667;48.698;8.762;2023-04-03T02:50:10;96584.00;;;2.70
10869;BMP180;62667;48.698;8.762;2023-04-03T02:52:38;96592.00;;;2.70
10869;BMP180;62667;48.698;8.762;2023-04-03T02:55:06;96586.00;;;2.70
10869;BMP180;62667;48.698;8.762;2023-04-03T02:57:34;96580.00;;;2.70
10869;BMP180;62667;48.698;8.762;2023-04-03T03:00:03;96573.00;;;2.70
10869;BMP180;62667;48.698;8.762;2023-04-03T03:02:31;96580.00;;;2.70
10869;BMP180;62667;48.698;8.762;2023-04-03T03:04:58;96580.00;;;2.70
10869;BMP180;62667;48.698;8.762;2023-04-03T03:07:25;96583.00;;;2.80
10869;BMP180;62667;48.698;8.762;2023-04-03T03:09:53;96580.00;;;2.70
10869;BMP180;62667;48.698;8.762;2023-04-03T03:12:20;96570.00;;;2.60
10869;BMP180;62667;48.698;8.762;2023-04-03T03:14:49;96572.00;;;2.80
10869;BMP180;62667;48.698;8.762;2023-04-03T03:17:18;96569.00;;;2.60
10869;BMP180;62667;48.698;8.762;2023-04-03T03:19:45;96575.00;;;2.60
10869;BMP180;62667;48.698;8.762;2023-04-03T03:22:13;96576.00;;;2.70
10869;BMP180;62667;48.698;8.762;2023-04-03T03:24:40;96572.00;;;2.70
10869;BMP180;62667;48.698;8.762;2023-04-03T03:27:08;96570.00;;;2.70
10869;BMP180;62667;48.698;8.762;2023-04-03T03:29:35;96575.00;;;2.60
10869;BMP180;62667;48.698;8.762;2023-04-03T03:32:03;96568.00;;;2.60
10869;BMP180;62667;48.698;8.762;2023-04-03T03:34:31;96558.00;;;2.60
10869;BMP180;62667;48.698;8.762;2023-04-03T03:36:59;96563.00;;;2.60
10869;BMP180;62667;48.698;8.762;2023-04-03T03:39:26;96570.00;;;2.60
10869;BMP180;62667;48.698;8.762;2023-04-03T03:41:54;96572.00;;;2.50
10869;BMP180;62667;48.698;8.762;2023-04-03T03:44:21;96571.00;;;2.50
10869;BMP180;62667;48.698;8.762;2023-04-03T03:46:49;96579.00;;;2.50
10869;BMP180;62667;48.698;8.762;2023-04-03T03:49:16;96569.00;;;2.50
10869;BMP180;62667;48.698;8.762;2023-04-03T03:51:45;96572.00;;;2.60
10869;BMP180;62667;48.698;8.762;2023-04-03T03:54:13;96568.00;;;2.60
10869;BMP180;62667;48.698;8.762;2023-04-03T03:56:40;96571.00;;;2.60
10869;BMP180;62667;48.698;8.762;2023-04-03T03:59:08;96571.00;;;2.60
10869;BMP180;62667;48.698;8.762;2023-04-03T04:01:35;96563.00;;;2.60
10869;BMP180;62667;48.698;8.762;2023-04-03T04:04:02;96573.00;;;2.50
10869;BMP180;62667;48.698;8.762;2023-04-03T04:06:30;96584.00;;;2.50
10869;BMP180;62667;48.698;8.762;2023-04-03T04:08:59;96580.00;;;2.60
10869;BMP180;62667;48.698;8.762;2023-04-03T04:11:26;96579.00;;;2.60
10869;BMP180;62667;48.698;8.762;2023-04-03T04:13:54;96582.00;;;2.60
10869;BMP180;62667;48.698;8.762;2023-04-03T04:16:21;96581.00;;;2.60
10869;BMP180;62667;48.698;8.762;2023-04-03T04:18:48;96580.00;;;2.60
10869;BMP180;62667;48.698;8.762;2023-04-03T04:21:16;96577.00;;;2.60
10869;BMP180;62667;48.698;8.762;2023-04-03T04:23:43;96578.00;;;2.60
10869;BMP180;62667;48.698;8.762;2023-04-03T04:26:12;96574.00;;;2.60
10869;BMP180;62667;48.698;8.762;2023-04-03T04:28:39;96580.00;;;2.60
10869;BMP180;62667;48.698;8.762;2023-04-03T04:31:07;96584.00;;;2.60
10869;BMP180;62667;48.698;8.762;2023-04-03T04:33:34;96586.00;;;2.60
10869;BMP180;62667;48.698;8.762;2023-04-03T04:36:01;96578.00;;;2.60
10869;BMP180;62667;48.698;8.762;2023-04-03T04:38:29;96570.00;;;2.70
10869;BMP180;62667;48.698;8.762;2023-04-03T04:40:56;96576.00;;;2.60
10869;BMP180;62667;48.698;8.762;2023-04-03T04:43:25;96578.00;;;2.60
10869;BMP180;62667;48.698;8.762;2023-04-03T04:46:01;96585.00;;;2.60
10869;BMP180;62667;48.698;8.762;2023-04-03T04:48:29;96581.00;;;2.60
10869;BMP180;62667;48.698;8.762;2023-04-03T04:50:56;96578.00;;;2.70
10869;BMP180;62667;48.698;8.762;2023-04-03T04:53:23;96576.00;;;2.70
10869;BMP180;62667;48.698;8.762;2023-04-03T04:55:51;96588.00;;;2.70
10869;BMP180;62667;48.698;8.762;2023-04-03T04:58:19;96575.00;;;2.70
10869;BMP180;62667;48.698;8.762;2023-04-03T05:00:48;96583.00;;;2.80
10869;BMP180;62667;48.698;8.762;2023-04-03T05:03:15;96586.00;;;2.80
10869;BMP180;62667;48.698;8.762;2023-04-03T05:05:43;96586.00;;;2.80
10869;BMP180;62667;48.698;8.762;2023-04-03T05:08:11;96593.00;;;2.70
10869;BMP180;62667;48.698;8.762;2023-04-03T05:10:38;96591.00;;;2.80
10869;BMP180;62667;48.698;8.762;2023-04-03T05:13:06;96605.00;;;2.80
10869;BMP180;62667;48.698;8.762;2023-04-03T05:15:34;96598.00;;;2.70
10869;BMP180;62667;48.698;8.762;2023-04-03T05:18:02;96604.00;;;2.80
10869;BMP180;62667;48.698;8.762;2023-04-03T05:20:31;96607.00;;;2.80
10869;BMP180;62667;48.698;8.762;2023-04-03T05:22:58;96597.00;;;2.70
10869;BMP180;62667;48.698;8.762;2023-04-03T05:25:25;96603.00;;;2.80
10869;BMP180;62667;48.698;8.762;2023-04-03T05:27:53;96608.00;;;2.80
10869;BMP180;62667;48.698;8.762;2023-04-03T05:30:20;96601.00;;;2.90
10869;BMP180;62667;48.698;8.762;2023-04-03T05:32:48;96606.00;;;2.90
10869;BMP180;62667;48.698;8.762;2023-04-03T05:35:17;96613.00;;;2.90
10869;BMP180;62667;48.698;8.762;2023-04-03T05:37:44;96610.00;;;2.90
10869;BMP180;62667;48.698;8.762;2023-04-03T05:40:12;96613.00;;;2.90
10869;BMP180;62667;48.698;8.762;2023-04-03T05:42:39;96604.00;;;2.90
10869;BMP180;62667;48.698;8.762;2023-04-03T05:45:07;96611.00;;;2.90
10869;BMP180;62667;48.698;8.762;2023-04-03T05:47:34;96613.00;;;2.90
10869;BMP180;62667;48.698;8.762;2023-04-03T05:50:02;96604.00;;;3.00
10869;BMP180;62667;48.698;8.762;2023-04-03T05:52:33;96616.00;;;3.10
10869;BMP180;62667;48.698;8.762;2023-04-03T05:55:02;96610.00;;;3.10
10869;BMP180;62667;48.698;8.762;2023-04-03T05:57:30;96610.00;;;3.10
10869;BMP180;62667;48.698;8.762;2023-04-03T05:59:57;96616.00;;;3.20
10869;BMP180;62667;48.698;8.762;2023-04-03T06:02:25;96613.00;;;3.30
10869;BMP180;62667;48.698;8.762;2023-04-03T06:04:53;96611.00;;;3.30
10869;BMP180;62667;48.698;8.762;2023-04-03T06:07:21;96612.00;;;3.40
10869;BMP180;62667;48.698;8.762;2023-04-03T06:09:51;96615.00;;;3.40
10869;BMP180;62667;48.698;8.762;2023-04-03T06:12:19;96613.00;;;3.40
10869;BMP180;62667;48.698;8.762;2023-04-03T06:14:47;96623.00;;;3.40
10869;BMP180;62667;48.698;8.762;2023-04-03T06:17:15;96625.00;;;3.50
10869;BMP180;62667;48.698;8.762;2023-04-03T06:19:44;96621.00;;;3.60
10869;BMP180;62667;48.698;8.762;2023-04-03T06:22:11;96619.00;;;3.60
10869;BMP180;62667;48.698;8.762;2023-04-03T06:24:39;96623.00;;;3.70
10869;BMP180;62667;48.698;8.762;2023-04-03T06:27:08;96626.00;;;3.80
10869;BMP180;62667;48.698;8.762;2023-04-03T06:29:36;96610.00;;;3.90
10869;BMP180;62667;48.698;8.762;2023-04-03T06:32:04;96624.00;;;4.00
10869;BMP180;62667;48.698;8.762;2023-04-03T06:34:32;96627.00;;;3.90
10869;BMP180;62667;48.698;8.762;2023-04-03T06:36:59;96619.00;;;3.90
10869;BMP180;62667;48.698;8.762;2023-04-03T06:39:27;96634.00;;;3.80
10869;BMP180;62667;48.698;8.762;2023-04-03T06:41:54;96631.00;;;3.80
10869;BMP180;62667;48.698;8.762;2023-04-03T06:44:23;96637.00;;;3.60
10869;BMP180;62667;48.698;8.762;2023-04-03T06:46:50;96634.00;;;3.70
10869;BMP180;62667;48.698;8.762;2023-04-03T06:49:18;96637.00;;;3.50
10869;BMP180;62667;48.698;8.762;2023-04-03T06:51:46;96645.00;;;3.60
10869;BMP180;62667;48.698;8.762;2023-04-03T06:54:13;96644.00;;;3.70
10869;BMP180;62667;48.698;8.762;2023-04-03T06:56:41;96646.00;;;3.90
10869;BMP180;62667;48.698;8.762;2023-04-03T06:59:09;96639.00;;;3.90
10869;BMP180;62667;48.698;8.762;2023-04-03T07:01:38;96645.00;;;3.90
10869;BMP180;62667;48.698;8.762;2023-04-03T07:04:06;96635.00;;;4.00
10869;BMP180;62667;48.698;8.762;2023-04-03T07:06:34;96644.00;;;4.10
10869;BMP180;62667;48.698;8.762;2023-04-03T07:09:02;96652.00;;;4.20
10869;BMP180;62667;48.698;8.762;2023-04-03T07:11:29;96648.00;;;4.30
10869;BMP180;62667;48.698;8.762;2023-04-03T07:13:57;96653.00;;;4.60
10869;BMP180;62667;48.698;8.762;2023-04-03T07:16:25;96650.00;;;4.60
10869;BMP180;62667;48.698;8.762;2023-04-03T07:18:53;96654.00;;;4.80
10869;BMP180;62667;48.698;8.762;2023-04-03T07:21:21;96660.00;;;4.60
10869;BMP180;62667;48.698;8.762;2023-04-03T07:23:48;96650.00;;;4.80
10869;BMP180;62667;48.698;8.762;2023-04-03T07:26:16;96651.00;;;4.80
10869;BMP180;62667;48.698;8.762;2023-04-03T07:28:43;96664.00;;;4.80
10869;BMP180;62667;48.698;8.762;2023-04-03T07:31:14;96662.00;;;4.90
10869;BMP180;62667;48.698;8.762;2023-04-03T07:33:43;96655.00;;;4.90
10869;BMP180;62667;48.698;8.762;2023-04-03T07:36:17;96669.00;;;5.00
10869;BMP180;62667;48.698;8.762;2023-04-03T07:38:45;96654.00;;;5.20
10869;BMP180;62667;48.698;8.762;2023-04-03T07:41:15;96665.00;;;5.00
10869;BMP180;62667;48.698;8.762;2023-04-03T07:43:43;96658.00;;;5.20
10869;BMP180;62667;48.698;8.762;2023-04-03T07:46:11;96662.00;;;5.40
10869;BMP180;62667;48.698;8.762;2023-04-03T07:48:38;96670.00;;;5.30
10869;BMP180;62667;48.698;8.762;2023-04-03T07:51:06;96676.00;;;5.30
10869;BMP180;62667;48.698;8.762;2023-04-03T07:53:34;96681.00;;;5.00
10869;BMP180;62667;48.698;8.762;2023-04-03T07:56:02;96674.00;;;5.00
10869;BMP180;62667;48.698;8.762;2023-04-03T07:58:30;96669.00;;;5.40
10869;BMP180;62667;48.698;8.762;2023-04-03T08:00:57;96678.00;;;5.60
10869;BMP180;62667;48.698;8.762;2023-04-03T08:03:24;96675.00;;;5.40
10869;BMP180;62667;48.698;8.762;2023-04-03T08:05:52;96675.00;;;5.50
10869;BMP180;62667;48.698;8.762;2023-04-03T08:08:22;96671.00;;;5.10
10869;BMP180;62667;48.698;8.762;2023-04-03T08:10:53;96677.00;;;5.40
10869;BMP180;62667;48.698;8.762;2023-04-03T08:13:21;96676.00;;;5.70
10869;BMP180;62667;48.698;8.762;2023-04-03T08:15:49;96676.00;;;5.50
10869;BMP180;62667;48.698;8.762;2023-04-03T08:18:17;96669.00;;;5.80
10869;BMP180;62667;48.698;8.762;2023-04-03T08:20:47;96676.00;;;6.00
10869;BMP180;62667;48.698;8.762;2023-04-03T08:23:14;96681.00;;;5.80
10869;BMP180;62667;48.698;8.762;2023-04-03T08:25:43;96682.00;;;5.80
10869;BMP180;62667;48.698;8.762;2023-04-03T08:28:12;96689.00;;;6.10
10869;BMP180;62667;48.698;8.762;2023-04-03T08:30:41;96693.00;;;6.40
10869;BMP180;62667;48.698;8.762;2023-04-03T08:33:09;96685.00;;;6.40
10869;BMP180;62667;48.698;8.762;2023-04-03T08:35:39;96690.00;;;6.80
10869;BMP180;62667;48.698;8.762;2023-04-03T08:38:07;96686.00;;;6.80
10869;BMP180;62667;48.698;8.762;2023-04-03T08:40:34;96692.00;;;6.80
10869;BMP180;62667;48.698;8.762;2023-04-03T08:43:14;96701.00;;;6.70
10869;BMP180;62667;48.698;8.762;2023-04-03T08:45:50;96687.00;;;6.60
10869;BMP180;62667;48.698;8.762;2023-04-03T08:48:21;96697.00;;;6.60
10869;BMP180;62667;48.698;8.762;2023-04-03T08:50:55;96702.00;;;6.50
10869;BMP180;62667;48.698;8.762;2023-04-03T08:53:28;96703.00;;;6.50
10869;BMP180;62667;48.698;8.762;2023-04-03T08:55:59;96702.00;;;6.30
10869;BMP180;62667;48.698;8.762;2023-04-03T08:58:30;96695.00;;;6.40
10869;BMP180;62667;48.698;8.762;2023-04-03T09:01:02;96706.00;;;6.40
10869;BMP180;62667;48.698;8.762;2023-04-03T09:03:31;96695.00;;;6.40
10869;BMP180;62667;48.698;8.762;2023-04-03T09:06:02;96695.00;;;6.40
10869;BMP180;62667;48.698;8.762;2023-04-03T09:08:32;96696.00;;;6.30
10869;BMP180;62667;48.698;8.762;2023-04-03T09:11:08;96697.00;;;6.80
10869;BMP180;62667;48.698;8.762;2023-04-03T09:13:45;96700.00;;;7.10
10869;BMP180;62667;48.698;8.762;2023-04-03T09:16:26;96700.00;;;7.00
10869;BMP180;62667;48.698;8.762;2023-04-03T09:19:02;96702.00;;;7.10
10869;BMP180;62667;48.698;8.762;2023-04-03T09:21:36;96699.00;;;7.00
10869;BMP180;62667;48.698;8.762;2023-04-03T09:24:06;96704.00;;;6.80
10869;BMP180;62667;48.698;8.762;2023-04-03T09:26:39;96707.00;;;6.70
10869;BMP180;62667;48.698;8.762;2023-04-03T09:29:14;96703.00;;;6.60
10869;BMP180;62667;48.698;8.762;2023-04-03T09:31:43;96711.00;;;6.70
10869;BMP180;62667;48.698;8.762;2023-04-03T09:34:17;96710.00;;;6.40
10869;BMP180;62667;48.698;8.762;2023-04-03T09:36:48;96709.00;;;6.40
10869;BMP180;62667;48.698;8.762;2023-04-03T09:39:18;96700.00;;;6.20
10869;BMP180;62667;48.698;8.762;2023-04-03T09:41:57;96705.00;;;6.40
10869;BMP180;62667;48.698;8.762;2023-04-03T09:44:29;96701.00;;;6.20
10869;BMP180;62667;48.698;8.762;2023-04-03T09:46:56;96702.00;;;6.20
10869;BMP180;62667;48.698;8.762;2023-04-03T09:49:24;96701.00;;;6.20
10869;BMP180;62667;48.698;8.762;2023-04-03T09:51:52;96701.00;;;6.50
10869;BMP180;62667;48.698;8.762;2023-04-03T09:54:40;96689.00;;;6.60
10869;BMP180;62667;48.698;8.762;2023-04-03T09:57:11;96701.00;;;6.60
10869;BMP180;62667;48.698;8.762;2023-04-03T09:59:45;96701.00;;;6.70
10869;BMP180;62667;48.698;8.762;2023-04-03T10:02:33;96718.00;;;6.30
10869;BMP180;62667;48.698;8.762;2023-04-03T10:05:02;96703.00;;;6.30
10869;BMP180;62667;48.698;8.762;2023-04-03T10:07:33;96703.00;;;6.10
10869;BMP180;62667;48.698;8.762;2023-04-03T10:10:15;96701.00;;;6.10
10869;BMP180;62667;48.698;8.762;2023-04-03T10:12:43;96700.00;;;6.20
10869;BMP180;62667;48.698;8.762;2023-04-03T10:15:15;96700.00;;;6.10
10869;BMP180;62667;48.698;8.762;2023-04-03T10:17:52;96692.00;;;6.20
10869;BMP180;62667;48.698;8.762;2023-04-03T10:20:27;96689.00;;;6.30
10869;BMP180;62667;48.698;8.762;2023-04-03T10:23:03;96687.00;;;6.20
10869;BMP180;62667;48.698;8.762;2023-04-03T10:25:39;96694.00;;;6.00
10869;BMP180;62667;48.698;8.762;2023-04-03T10:28:12;96685.00;;;6.00
10869;BMP180;62667;48.698;8.762;2023-04-03T10:30:49;96681.00;;;6.20
10869;BMP180;62667;48.698;8.762;2023-04-03T10:33:31;96674.00;;;6.30
10869;BMP180;62667;48.698;8.762;2023-04-03T10:36:20;96678.00;;;6.50
10869;BMP180;62667;48.698;8.762;2023-04-03T10:38:55;96693.00;;;6.60
10869;BMP180;62667;48.698;8.762;2023-04-03T10:41:34;96682.00;;;6.60
10869;BMP180;62667;48.698;8.762;2023-04-03T10:44:12;96681.00;;;6.50
10869;BMP180;62667;48.698;8.762;2023-04-03T10:46:47;96684.00;;;6.80
10869;BMP180;62667;48.698;8.762;2023-04-03T10:49:24;96686.00;;;7.00
10869;BMP180;62667;48.698;8.762;2023-04-03T10:51:57;96703.00;;;7.10
10869;BMP180;62667;48.698;8.762;2023-04-03T10:54:34;96689.00;;;7.00
10869;BMP180;62667;48.698;8.762;2023-04-03T10:57:05;96689.00;;;6.80
10869;BMP180;62667;48.698;8.762;2023-04-03T10:59:38;96703.00;;;7.00
10869;BMP180;62667;48.698;8.762;2023-04-03T11:02:16;96698.00;;;7.00
10869;BMP180;62667;48.698;8.762;2023-04-03T11:04:50;96698.00;;;7.00
10869;BMP180;62667;48.698;8.762;2023-04-03T11:07:21;96682.00;;;7.10
10869;BMP180;62667;48.698;8.762;2023-04-03T11:09:52;96687.00;;;6.90
10869;BMP180;62667;48.698;8.762;2023-04-03T11:12:25;96701.00;;;6.80
10869;BMP180;62667;48.698;8.762;2023-04-03T11:14:55;96694.00;;;6.90
10869;BMP180;62667;48.698;8.762;2023-04-03T11:17:30;96694.00;;;6.30
10869;BMP180;62667;48.698;8.762;2023-04-03T11:20:03;96688.00;;;6.30
10869;BMP180;62667;48.698;8.762;2023-04-03T11:22:35;96698.00;;;6.40
10869;BMP180;62667;48.698;8.762;2023-04-03T11:25:06;96686.00;;;6.30
10869;BMP180;62667;48.698;8.762;2023-04-03T11:27:45;96686.00;;;6.50
10869;BMP180;62667;48.698;8.762;2023-04-03T11:30:17;96686.00;;;6.30
10869;BMP180;62667;48.698;8.762;2023-04-03T11:33:04;96688.00;;;6.80
10869;BMP180;62667;48.698;8.762;2023-04-03T11:35:34;96687.00;;;7.00
10869;BMP180;62667;48.698;8.762;2023-04-03T11:38:03;96685.00;;;7.00
10869;BMP180;62667;48.698;8.762;2023-04-03T11:40:34;96689.00;;;6.90
10869;BMP180;62667;48.698;8.762;2023-04-03T11:43:07;96693.00;;;6.80
10869;BMP180;62667;48.698;8.762;2023-04-03T11:45:52;96693.00;;;6.60
10869;BMP180;62667;48.698;8.762;2023-04-03T11:48:49;96695.00;;;6.40
10869;BMP180;62667;48.698;8.762;2023-04-03T11:51:39;96688.00;;;6.30
10869;BMP180;62667;48.698;8.762;2023-04-03T11:54:46;96678.00;;;6.50
10869;BMP180;62667;48.698;8.762;2023-04-03T12:09:28;96664.00;;;6.80
10869;BMP180;62667;48.698;8.762;2023-04-03T12:11:58;96669.00;;;7.00
10869;BMP180;62667;48.698;8.762;2023-04-03T12:14:28;96657.00;;;6.50
10869;BMP180;62667;48.698;8.762;2023-04-03T12:16:56;96660.00;;;6.20
10869;BMP180;62667;48.698;8.762;2023-04-03T12:19:36;96663.00;;;6.50
10869;BMP180;62667;48.698;8.762;2023-04-03T12:22:15;96654.00;;;6.60
10869;BMP180;62667;48.698;8.762;2023-04-03T12:24:47;96656.00;;;6.90
10869;BMP180;62667;48.698;8.762;2023-04-03T12:27:34;96660.00;;;7.00
10869;BMP180;62667;48.698;8.762;2023-04-03T12:30:15;96653.00;;;6.80
10869;BMP180;62667;48.698;8.762;2023-04-03T12:33:02;96664.00;;;6.50
10869;BMP180;62667;48.698;8.762;2023-04-03T12:35:36;96662.00;;;6.30
10869;BMP180;62667;48.698;8.762;2023-04-03T12:38:41;96658.00;;;6.30
10869;BMP180;62667;48.698;8.762;2023-04-03T12:41:30;96659.00;;;6.30
10869;BMP180;62667;48.698;8.762;2023-04-03T12:44:27;96664.00;;;6.30
10869;BMP180;62667;48.698;8.762;2023-04-03T12:47:00;96659.00;;;6.40
10869;BMP180;62667;48.698;8.762;2023-04-03T12:49:37;96651.00;;;6.40
10869;BMP180;62667;48.698;8.762;2023-04-03T12:52:15;96655.00;;;6.20
10869;BMP180;62667;48.698;8.762;2023-04-03T12:54:46;96653.00;;;6.40
10869;BMP180;62667;48.698;8.762;2023-04-03T12:57:19;96649.00;;;6.40
10869;BMP180;62667;48.698;8.762;2023-04-03T12:59:47;96641.00;;;6.40
10869;BMP180;62667;48.698;8.762;2023-04-03T13:02:23;96646.00;;;6.60
10869;BMP180;62667;48.698;8.762;2023-04-03T13:04:53;96643.00;;;6.90
10869;BMP180;62667;48.698;8.762;2023-04-03T13:07:22;96648.00;;;7.30
10869;BMP180;62667;48.698;8.762;2023-04-03T13:10:03;96644.00;;;7.20
10869;BMP180;62667;48.698;8.762;2023-04-03T13:12:47;96645.00;;;7.40
10869;BMP180;62667;48.698;8.762;2023-04-03T13:15:17;96655.00;;;7.30
10869;BMP180;62667;48.698;8.762;2023-04-03T13:17:45;96652.00;;;6.90
10869;BMP180;62667;48.698;8.762;2023-04-03T13:20:18;96653.00;;;6.90
10869;BMP180;62667;48.698;8.762;2023-04-03T13:22:54;96643.00;;;6.90
10869;BMP180;62667;48.698;8.762;2023-04-03T13:25:23;96642.00;;;6.90
10869;BMP180;62667;48.698;8.762;2023-04-03T13:27:53;96638.00;;;7.00
10869;BMP180;62667;48.698;8.762;2023-04-03T13:30:25;96642.00;;;6.90
10869;BMP180;62667;48.698;8.762;2023-04-03T13:32:54;96642.00;;;6.50
10869;BMP180;62667;48.698;8.762;2023-04-03T13:35:35;96643.00;;;6.80
10869;BMP180;62667;48.698;8.762;2023-04-03T13:38:07;96641.00;;;6.90
10869;BMP180;62667;48.698;8.762;2023-04-03T13:40:49;96633.00;;;7.10
10869;BMP180;62667;48.698;8.762;2023-04-03T13:43:23;96629.00;;;7.70
10869;BMP180;62667;48.698;8.762;2023-04-03T13:46:00;96634.00;;;8.00
10869;BMP180;62667;48.698;8.762;2023-04-03T13:48:36;96640.00;;;8.10
10869;BMP180;62667;48.698;8.762;2023-04-03T13:51:07;96632.00;;;7.90
10869;BMP180;62667;48.698;8.762;2023-04-03T13:53:45;96633.00;;;7.70
10869;BMP180;62667;48.698;8.762;2023-04-03T13:56:26;96640.00;;;7.20
10869;BMP180;62667;48.698;8.762;2023-04-03T13:59:05;96638.00;;;7.20
10869;BMP180;62667;48.698;8.762;2023-04-03T14:01:38;96637.00;;;7.20
10869;BMP180;62667;48.698;8.762;2023-04-03T14:04:14;96630.00;;;7.10
10869;BMP180;62667;48.698;8.762;2023-04-03T14:06:41;96627.00;;;7.30
10869;BMP180;62667;48.698;8.762;2023-04-03T14:09:09;96635.00;;;7.00
10869;BMP180;62667;48.698;8.762;2023-04-03T14:11:37;96634.00;;;7.10
10869;BMP180;62667;48.698;8.762;2023-04-03T14:14:13;96631.00;;;7.20
10869;BMP180;62667;48.698;8.762;2023-04-03T14:16:43;96623.00;;;7.80
10869;BMP180;62667;48.698;8.762;2023-04-03T14:19:18;96622.00;;;8.30
10869;BMP180;62667;48.698;8.762;2023-04-03T14:21:46;96611.00;;;8.90
10869;BMP180;62667;48.698;8.762;2023-04-03T14:24:14;96611.00;;;9.40
10869;BMP180;62667;48.698;8.762;2023-04-03T14:26:43;96614.00;;;9.60
10869;BMP180;62667;48.698;8.762;2023-04-03T14:29:13;96625.00;;;9.60
10869;BMP180;62667;48.698;8.762;2023-04-03T14:31:42;96601.00;;;9.50
10869;BMP180;62667;48.698;8.762;2023-04-03T14:34:10;96608.00;;;9.40
10869;BMP180;62667;48.698;8.762;2023-04-03T14:36:39;96609.00;;;8.80
10869;BMP180;62667;48.698;8.762;2023-04-03T14:39:10;96615.00;;;8.30
10869;BMP180;62667;48.698;8.762;2023-04-03T14:41:38;96629.00;;;8.30
10869;BMP180;62667;48.698;8.762;2023-04-03T14:44:05;96612.00;;;7.60
10869;BMP180;62667;48.698;8.762;2023-04-03T14:46:36;96611.00;;;7.70
10869;BMP180;62667;48.698;8.762;2023-04-03T14:49:05;96609.00;;;7.60
10869;BMP180;62667;48.698;8.762;2023-04-03T14:51:39;96600.00;;;7.20
10869;BMP180;62667;48.698;8.762;2023-04-03T14:54:12;96614.00;;;7.60